VLG47GR LEIB-LEBB
Flight info
| Callsign | VLG47GR |
|---|---|
| Flight time | 1h 10m |
| Altitude | 31000 |
| Route | EPAMA N856 UMURE DCT XIKEN DCT KARES DCT ARBEK DCT REBUL DCT GEMAS DCT ALOSU DCT GRAUS DCT POSSY M601 CEGAM |
| Aircraft | A320/M-SDE3FGHIRWY/LB1 |
Departure
| Time | 2026-05-07 20:00 |
|---|---|
| Airport | Ibiza Airport (LEIB) |
Arrival
| Time | 2026-05-07 21:11 |
|---|---|
| Airport | Bilbao Airport (LEBB) |
| Time | Latitude | Longitude | Altitude | Speed | Heading |
|---|---|---|---|---|---|
| 2026-05-07 19:39 | 38.87587 | 1.36995 | 9 ft | 0 kts | 332° |
| 2026-05-07 19:51 | 38.87584 | 1.36997 | 9 ft | 3 kts | 332° |
| 2026-05-07 19:52 | 38.87562 | 1.37014 | 10 ft | 4 kts | 320° |
| 2026-05-07 19:52 | 38.87545 | 1.37039 | 10 ft | 4 kts | 284° |
| 2026-05-07 19:52 | 38.87545 | 1.37060 | 10 ft | 0 kts | 242° |
| 2026-05-07 19:54 | 38.87538 | 1.37044 | 10 ft | 4 kts | 242° |
| 2026-05-07 19:55 | 38.87518 | 1.36996 | 9 ft | 8 kts | 242° |
| 2026-05-07 19:55 | 38.87487 | 1.36920 | 9 ft | 11 kts | 242° |
| 2026-05-07 19:55 | 38.87445 | 1.36819 | 9 ft | 14 kts | 242° |
| 2026-05-07 19:55 | 38.87406 | 1.36722 | 9 ft | 9 kts | 243° |
| 2026-05-07 19:56 | 38.87390 | 1.36719 | 9 ft | 3 kts | 112° |
| 2026-05-07 19:56 | 38.87377 | 1.36760 | 9 ft | 7 kts | 112° |
| 2026-05-07 19:56 | 38.87351 | 1.36827 | 9 ft | 10 kts | 130° |
| 2026-05-07 19:56 | 38.87280 | 1.36845 | 11 ft | 13 kts | 219° |
| 2026-05-07 19:57 | 38.87232 | 1.36736 | 9 ft | 16 kts | 243° |
| 2026-05-07 19:57 | 38.87179 | 1.36602 | 9 ft | 18 kts | 243° |
| 2026-05-07 19:57 | 38.87116 | 1.36449 | 9 ft | 21 kts | 242° |
| 2026-05-07 19:57 | 38.87043 | 1.36272 | 9 ft | 24 kts | 242° |
| 2026-05-07 19:58 | 38.86959 | 1.36067 | 9 ft | 27 kts | 242° |
| 2026-05-07 19:58 | 38.86872 | 1.35857 | 9 ft | 20 kts | 240° |
| 2026-05-07 19:58 | 38.86786 | 1.35843 | 7 ft | 16 kts | 150° |
| 2026-05-07 19:58 | 38.86707 | 1.35913 | 6 ft | 6 kts | 116° |
| 2026-05-07 19:59 | 38.86721 | 1.35952 | 6 ft | 7 kts | 63° |
| 2026-05-07 19:59 | 38.86723 | 1.35957 | 6 ft | 0 kts | 63° |
| 2026-05-07 19:59 | 38.86748 | 1.36018 | 6 ft | 31 kts | 62° |
| 2026-05-07 19:59 | 38.86979 | 1.36569 | 7 ft | 105 kts | 61° |
| 2026-05-07 20:00 | 38.87404 | 1.37603 | 112 ft | 149 kts | 59° |
| 2026-05-07 20:00 | 38.87867 | 1.38807 | 786 ft | 153 kts | 62° |
| 2026-05-07 20:00 | 38.88178 | 1.40152 | 1519 ft | 162 kts | 74° |
| 2026-05-07 20:00 | 38.88408 | 1.41622 | 2133 ft | 176 kts | 75° |
| 2026-05-07 20:01 | 38.88684 | 1.43239 | 2668 ft | 196 kts | 74° |
| 2026-05-07 20:01 | 38.89013 | 1.45026 | 3394 ft | 209 kts | 73° |
| 2026-05-07 20:01 | 38.89356 | 1.46802 | 4488 ft | 206 kts | 72° |
| 2026-05-07 20:01 | 38.89717 | 1.48575 | 5559 ft | 204 kts | 72° |
| 2026-05-07 20:02 | 38.90088 | 1.50322 | 6580 ft | 202 kts | 72° |
| 2026-05-07 20:02 | 38.90465 | 1.52046 | 7524 ft | 198 kts | 72° |
| 2026-05-07 20:02 | 38.91094 | 1.53577 | 8389 ft | 198 kts | 45° |
| 2026-05-07 20:02 | 38.92312 | 1.54462 | 9022 ft | 211 kts | 12° |
| 2026-05-07 20:03 | 38.93813 | 1.54404 | 9667 ft | 225 kts | 347° |
| 2026-05-07 20:03 | 38.95410 | 1.53936 | 10203 ft | 245 kts | 348° |
| 2026-05-07 20:03 | 38.97138 | 1.53479 | 10727 ft | 265 kts | 349° |
| 2026-05-07 20:03 | 38.99035 | 1.53013 | 11183 ft | 288 kts | 349° |
| 2026-05-07 20:04 | 39.01073 | 1.52545 | 11669 ft | 307 kts | 348° |
| 2026-05-07 20:04 | 39.03242 | 1.52049 | 12190 ft | 325 kts | 348° |
| 2026-05-07 20:04 | 39.05525 | 1.51511 | 12722 ft | 341 kts | 348° |
| 2026-05-07 20:04 | 39.07878 | 1.50946 | 13451 ft | 348 kts | 347° |
| 2026-05-07 20:05 | 39.10282 | 1.50363 | 14205 ft | 353 kts | 347° |
| 2026-05-07 20:05 | 39.12719 | 1.49768 | 14887 ft | 360 kts | 347° |
| 2026-05-07 20:05 | 39.15196 | 1.49162 | 15568 ft | 365 kts | 347° |
| 2026-05-07 20:05 | 39.17704 | 1.48548 | 16291 ft | 369 kts | 347° |
| 2026-05-07 20:06 | 39.20239 | 1.47925 | 17021 ft | 373 kts | 347° |
| 2026-05-07 20:06 | 39.22801 | 1.47296 | 17769 ft | 377 kts | 347° |
| 2026-05-07 20:06 | 39.25391 | 1.46661 | 18462 ft | 381 kts | 347° |
| 2026-05-07 20:06 | 39.28004 | 1.46019 | 19096 ft | 385 kts | 347° |
| 2026-05-07 20:07 | 39.30651 | 1.45367 | 19753 ft | 389 kts | 348° |
| 2026-05-07 20:07 | 39.33321 | 1.44708 | 20399 ft | 393 kts | 348° |
| 2026-05-07 20:07 | 39.36016 | 1.44043 | 21037 ft | 396 kts | 348° |
| 2026-05-07 20:07 | 39.38737 | 1.43371 | 21645 ft | 400 kts | 348° |
| 2026-05-07 20:08 | 39.41482 | 1.42694 | 22231 ft | 403 kts | 348° |
| 2026-05-07 20:08 | 39.44253 | 1.42010 | 22816 ft | 407 kts | 348° |
| 2026-05-07 20:08 | 39.47051 | 1.41319 | 23395 ft | 411 kts | 348° |
| 2026-05-07 20:08 | 39.49874 | 1.40619 | 23909 ft | 415 kts | 348° |
| 2026-05-07 20:09 | 39.52714 | 1.39912 | 24409 ft | 418 kts | 347° |
| 2026-05-07 20:09 | 39.55578 | 1.39196 | 24913 ft | 421 kts | 347° |
| 2026-05-07 20:09 | 39.58463 | 1.38475 | 25376 ft | 425 kts | 347° |
| 2026-05-07 20:10 | 39.64416 | 1.37485 | 26186 ft | 436 kts | 353° |
| 2026-05-07 20:10 | 39.67445 | 1.37092 | 26669 ft | 439 kts | 352° |
| 2026-05-07 20:10 | 39.70494 | 1.36689 | 27140 ft | 442 kts | 352° |
| 2026-05-07 20:10 | 39.73523 | 1.36288 | 27588 ft | 445 kts | 352° |
| 2026-05-07 20:11 | 39.76612 | 1.35874 | 28078 ft | 448 kts | 352° |
| 2026-05-07 20:11 | 39.79764 | 1.35448 | 28537 ft | 451 kts | 352° |
| 2026-05-07 20:11 | 39.82897 | 1.35024 | 28895 ft | 457 kts | 353° |
| 2026-05-07 20:11 | 39.86035 | 1.34605 | 29274 ft | 461 kts | 353° |
| 2026-05-07 20:12 | 39.89285 | 1.34175 | 29721 ft | 465 kts | 353° |
| 2026-05-07 20:12 | 39.92473 | 1.33757 | 30149 ft | 468 kts | 353° |
| 2026-05-07 20:12 | 39.95723 | 1.33330 | 30570 ft | 470 kts | 352° |
| 2026-05-07 20:12 | 39.98974 | 1.32899 | 30894 ft | 470 kts | 352° |
| 2026-05-07 20:13 | 40.02208 | 1.32467 | 30962 ft | 461 kts | 352° |
| 2026-05-07 20:13 | 40.05350 | 1.32049 | 30972 ft | 449 kts | 352° |
| 2026-05-07 20:13 | 40.08447 | 1.31636 | 30991 ft | 446 kts | 352° |
| 2026-05-07 20:14 | 40.14606 | 1.30802 | 30982 ft | 445 kts | 352° |
| 2026-05-07 20:14 | 40.20761 | 1.29970 | 30986 ft | 445 kts | 352° |
| 2026-05-07 20:15 | 40.26920 | 1.29138 | 30990 ft | 446 kts | 352° |
| 2026-05-07 20:15 | 40.33118 | 1.28298 | 30987 ft | 448 kts | 352° |
| 2026-05-07 20:16 | 40.39332 | 1.27460 | 30993 ft | 449 kts | 352° |
| 2026-05-07 20:16 | 40.45553 | 1.26620 | 31006 ft | 449 kts | 352° |
| 2026-05-07 20:17 | 40.51778 | 1.25775 | 31000 ft | 450 kts | 352° |
| 2026-05-07 20:17 | 40.56926 | 1.25082 | 30995 ft | 439 kts | 352° |
| 2026-05-07 20:18 | 40.62874 | 1.24281 | 30990 ft | 424 kts | 352° |
| 2026-05-07 20:18 | 40.68712 | 1.23476 | 30995 ft | 421 kts | 352° |
| 2026-05-07 20:19 | 40.74531 | 1.22672 | 30998 ft | 421 kts | 352° |
| 2026-05-07 20:19 | 40.80354 | 1.21874 | 30996 ft | 421 kts | 352° |
| 2026-05-07 20:20 | 40.86178 | 1.21074 | 31008 ft | 421 kts | 352° |
| 2026-05-07 20:20 | 40.92003 | 1.20273 | 31012 ft | 421 kts | 352° |
| 2026-05-07 20:21 | 40.97844 | 1.19471 | 30999 ft | 423 kts | 352° |
| 2026-05-07 20:21 | 41.03701 | 1.18664 | 31001 ft | 423 kts | 352° |
| 2026-05-07 20:22 | 41.09560 | 1.17853 | 30999 ft | 424 kts | 352° |
| 2026-05-07 20:22 | 41.15438 | 1.17034 | 31010 ft | 425 kts | 352° |
| 2026-05-07 20:23 | 41.21342 | 1.16372 | 31006 ft | 426 kts | 354° |
| 2026-05-07 20:23 | 41.27259 | 1.15806 | 31009 ft | 427 kts | 354° |
| 2026-05-07 20:24 | 41.33185 | 1.15206 | 31015 ft | 427 kts | 353° |
| 2026-05-07 20:24 | 41.39118 | 1.14587 | 31027 ft | 428 kts | 353° |
| 2026-05-07 20:25 | 41.45046 | 1.13958 | 31045 ft | 426 kts | 353° |
| 2026-05-07 20:25 | 41.50895 | 1.13340 | 31049 ft | 423 kts | 353° |
| 2026-05-07 20:26 | 41.56743 | 1.12727 | 31055 ft | 421 kts | 353° |
| 2026-05-07 20:26 | 41.62585 | 1.12091 | 31039 ft | 420 kts | 349° |
| 2026-05-07 20:26 | 41.65407 | 1.11205 | 31034 ft | 415 kts | 336° |
| 2026-05-07 20:27 | 41.68000 | 1.09598 | 31031 ft | 408 kts | 324° |
| 2026-05-07 20:27 | 41.70273 | 1.07382 | 31025 ft | 401 kts | 313° |
| 2026-05-07 20:27 | 41.72152 | 1.04674 | 31018 ft | 394 kts | 301° |
| 2026-05-07 20:28 | 41.74801 | 0.98378 | 31018 ft | 387 kts | 291° |
| 2026-05-07 20:28 | 41.77262 | 0.91962 | 31040 ft | 388 kts | 291° |
| 2026-05-07 20:29 | 41.79726 | 0.85533 | 31037 ft | 387 kts | 291° |
| 2026-05-07 20:29 | 41.82181 | 0.79108 | 31033 ft | 387 kts | 291° |
| 2026-05-07 20:30 | 41.84631 | 0.72693 | 31037 ft | 386 kts | 293° |
| 2026-05-07 20:30 | 41.87071 | 0.66288 | 31037 ft | 385 kts | 292° |
| 2026-05-07 20:31 | 41.89498 | 0.59906 | 31036 ft | 383 kts | 292° |
| 2026-05-07 20:31 | 41.91912 | 0.53531 | 31032 ft | 383 kts | 292° |
| 2026-05-07 20:32 | 41.94311 | 0.47168 | 31028 ft | 382 kts | 292° |
| 2026-05-07 20:32 | 41.96711 | 0.40801 | 31027 ft | 382 kts | 292° |
| 2026-05-07 20:33 | 41.99115 | 0.34441 | 31047 ft | 381 kts | 293° |
| 2026-05-07 20:33 | 42.01500 | 0.28115 | 31040 ft | 378 kts | 293° |
| 2026-05-07 20:34 | 42.03854 | 0.21818 | 31035 ft | 376 kts | 293° |
| 2026-05-07 20:34 | 42.06177 | 0.15586 | 31032 ft | 374 kts | 293° |
| 2026-05-07 20:35 | 42.08512 | 0.09333 | 31030 ft | 374 kts | 293° |
| 2026-05-07 20:35 | 42.10851 | 0.03075 | 31027 ft | 374 kts | 293° |
| 2026-05-07 20:36 | 42.13175 | -0.03187 | 31029 ft | 373 kts | 293° |
| 2026-05-07 20:36 | 42.15490 | -0.09434 | 31014 ft | 372 kts | 293° |
| 2026-05-07 20:37 | 42.17802 | -0.15670 | 31010 ft | 371 kts | 293° |
| 2026-05-07 20:37 | 42.20097 | -0.21899 | 31043 ft | 371 kts | 293° |
| 2026-05-07 20:38 | 42.22391 | -0.28122 | 31033 ft | 371 kts | 293° |
| 2026-05-07 20:38 | 42.24680 | -0.34362 | 31028 ft | 371 kts | 293° |
| 2026-05-07 20:39 | 42.26965 | -0.40596 | 31025 ft | 371 kts | 293° |
| 2026-05-07 20:39 | 42.29256 | -0.46841 | 31024 ft | 371 kts | 293° |
| 2026-05-07 20:40 | 42.31544 | -0.53097 | 31023 ft | 371 kts | 292° |
| 2026-05-07 20:40 | 42.33821 | -0.59365 | 31028 ft | 371 kts | 292° |
| 2026-05-07 20:41 | 42.36091 | -0.65620 | 31020 ft | 371 kts | 292° |
| 2026-05-07 20:41 | 42.38363 | -0.71883 | 31025 ft | 371 kts | 292° |
| 2026-05-07 20:42 | 42.40630 | -0.78139 | 31042 ft | 370 kts | 293° |
| 2026-05-07 20:42 | 42.42890 | -0.84400 | 31038 ft | 370 kts | 293° |
| 2026-05-07 20:43 | 42.45139 | -0.90645 | 31031 ft | 369 kts | 293° |
| 2026-05-07 20:43 | 42.47376 | -0.96885 | 31023 ft | 368 kts | 293° |
| 2026-05-07 20:44 | 42.49612 | -1.03119 | 31019 ft | 368 kts | 293° |
| 2026-05-07 20:44 | 42.51846 | -1.09341 | 31009 ft | 367 kts | 293° |
| 2026-05-07 20:45 | 42.54074 | -1.15579 | 31015 ft | 367 kts | 294° |
| 2026-05-07 20:45 | 42.56297 | -1.21807 | 31015 ft | 366 kts | 294° |
| 2026-05-07 20:46 | 42.58508 | -1.28015 | 31003 ft | 365 kts | 293° |
| 2026-05-07 20:46 | 42.60708 | -1.34227 | 31009 ft | 365 kts | 293° |
| 2026-05-07 20:47 | 42.62911 | -1.40468 | 30981 ft | 374 kts | 293° |
| 2026-05-07 20:47 | 42.64061 | -1.43727 | 30976 ft | 390 kts | 293° |
| 2026-05-07 20:47 | 42.65239 | -1.47068 | 30975 ft | 403 kts | 293° |
| 2026-05-07 20:48 | 42.67691 | -1.54012 | 30974 ft | 407 kts | 294° |
| 2026-05-07 20:48 | 42.68907 | -1.57453 | 30595 ft | 402 kts | 294° |
| 2026-05-07 20:48 | 42.70111 | -1.60871 | 30043 ft | 399 kts | 294° |
| 2026-05-07 20:48 | 42.71303 | -1.64271 | 29384 ft | 397 kts | 293° |
| 2026-05-07 20:49 | 42.72484 | -1.67651 | 28736 ft | 394 kts | 293° |
| 2026-05-07 20:49 | 42.73729 | -1.70966 | 28019 ft | 395 kts | 299° |
| 2026-05-07 20:49 | 42.75209 | -1.74126 | 27245 ft | 396 kts | 300° |
| 2026-05-07 20:49 | 42.76697 | -1.77284 | 26484 ft | 397 kts | 300° |
| 2026-05-07 20:50 | 42.78187 | -1.80445 | 25746 ft | 397 kts | 300° |
| 2026-05-07 20:50 | 42.79679 | -1.83609 | 25027 ft | 398 kts | 300° |
| 2026-05-07 20:50 | 42.81177 | -1.86787 | 24296 ft | 399 kts | 300° |
| 2026-05-07 20:50 | 42.82678 | -1.89979 | 23597 ft | 400 kts | 300° |
| 2026-05-07 20:51 | 42.84165 | -1.93145 | 23247 ft | 391 kts | 300° |
| 2026-05-07 20:51 | 42.85607 | -1.96216 | 22971 ft | 380 kts | 300° |
| 2026-05-07 20:51 | 42.87017 | -1.99228 | 22500 ft | 375 kts | 300° |
| 2026-05-07 20:51 | 42.88410 | -2.02215 | 22001 ft | 372 kts | 300° |
| 2026-05-07 20:52 | 42.89789 | -2.05175 | 21467 ft | 366 kts | 300° |
| 2026-05-07 20:52 | 42.91150 | -2.08094 | 20752 ft | 363 kts | 300° |
| 2026-05-07 20:52 | 42.92496 | -2.10988 | 20100 ft | 359 kts | 300° |
| 2026-05-07 20:52 | 42.93833 | -2.13862 | 19454 ft | 357 kts | 300° |
| 2026-05-07 20:53 | 42.95155 | -2.16703 | 18958 ft | 352 kts | 300° |
| 2026-05-07 20:53 | 42.96455 | -2.19494 | 18371 ft | 345 kts | 300° |
| 2026-05-07 20:53 | 42.97727 | -2.22229 | 17711 ft | 338 kts | 300° |
| 2026-05-07 20:53 | 42.98973 | -2.24915 | 17043 ft | 332 kts | 300° |
| 2026-05-07 20:54 | 43.00205 | -2.27553 | 16400 ft | 327 kts | 301° |
| 2026-05-07 20:54 | 43.01429 | -2.30157 | 15752 ft | 324 kts | 301° |
| 2026-05-07 20:54 | 43.02643 | -2.32736 | 15124 ft | 321 kts | 301° |
| 2026-05-07 20:54 | 43.03843 | -2.35282 | 14512 ft | 317 kts | 301° |
| 2026-05-07 20:55 | 43.05033 | -2.37807 | 13992 ft | 314 kts | 301° |
| 2026-05-07 20:55 | 43.06208 | -2.40307 | 13485 ft | 310 kts | 301° |
| 2026-05-07 20:55 | 43.07350 | -2.42747 | 12960 ft | 307 kts | 301° |
| 2026-05-07 20:55 | 43.08492 | -2.45197 | 12433 ft | 304 kts | 301° |
| 2026-05-07 20:56 | 43.09624 | -2.47623 | 11918 ft | 301 kts | 301° |
| 2026-05-07 20:56 | 43.10753 | -2.50046 | 11417 ft | 295 kts | 301° |
| 2026-05-07 20:56 | 43.11827 | -2.52349 | 11071 ft | 286 kts | 301° |
| 2026-05-07 20:56 | 43.12891 | -2.54638 | 10714 ft | 285 kts | 301° |
| 2026-05-07 20:57 | 43.13951 | -2.56921 | 10384 ft | 284 kts | 301° |
| 2026-05-07 20:57 | 43.15009 | -2.59196 | 10046 ft | 282 kts | 301° |
| 2026-05-07 20:57 | 43.16060 | -2.61459 | 9676 ft | 281 kts | 301° |
| 2026-05-07 20:57 | 43.17105 | -2.63709 | 9321 ft | 279 kts | 301° |
| 2026-05-07 20:58 | 43.18146 | -2.65951 | 8955 ft | 278 kts | 300° |
| 2026-05-07 20:58 | 43.19181 | -2.68185 | 8582 ft | 278 kts | 300° |
| 2026-05-07 20:58 | 43.20212 | -2.70415 | 8241 ft | 277 kts | 301° |
| 2026-05-07 20:58 | 43.21241 | -2.72638 | 7896 ft | 275 kts | 301° |
| 2026-05-07 20:59 | 43.22263 | -2.74847 | 7558 ft | 274 kts | 301° |
| 2026-05-07 20:59 | 43.23279 | -2.77044 | 7234 ft | 272 kts | 301° |
| 2026-05-07 20:59 | 43.24279 | -2.79202 | 7064 ft | 264 kts | 301° |
| 2026-05-07 20:59 | 43.25250 | -2.81294 | 6904 ft | 256 kts | 301° |
| 2026-05-07 21:00 | 43.26195 | -2.83327 | 6735 ft | 249 kts | 301° |
| 2026-05-07 21:00 | 43.27115 | -2.85299 | 6580 ft | 242 kts | 301° |
| 2026-05-07 21:00 | 43.28007 | -2.87209 | 6429 ft | 234 kts | 301° |
| 2026-05-07 21:00 | 43.28869 | -2.89059 | 6288 ft | 226 kts | 300° |
| 2026-05-07 21:01 | 43.29697 | -2.90851 | 6131 ft | 219 kts | 300° |
| 2026-05-07 21:01 | 43.30552 | -2.92537 | 5979 ft | 213 kts | 309° |
| 2026-05-07 21:01 | 43.31605 | -2.93932 | 5827 ft | 208 kts | 318° |
| 2026-05-07 21:01 | 43.32702 | -2.95192 | 5675 ft | 203 kts | 318° |
| 2026-05-07 21:02 | 43.33783 | -2.96408 | 5521 ft | 200 kts | 318° |
| 2026-05-07 21:02 | 43.34844 | -2.97649 | 5379 ft | 200 kts | 316° |
| 2026-05-07 21:02 | 43.35883 | -2.98925 | 5241 ft | 200 kts | 315° |
| 2026-05-07 21:02 | 43.36896 | -3.00234 | 5108 ft | 200 kts | 313° |
| 2026-05-07 21:03 | 43.37915 | -3.01531 | 4979 ft | 200 kts | 316° |
| 2026-05-07 21:03 | 43.38968 | -3.02776 | 4862 ft | 199 kts | 317° |
| 2026-05-07 21:03 | 43.40026 | -3.04007 | 4736 ft | 199 kts | 317° |
| 2026-05-07 21:03 | 43.41075 | -3.05239 | 4617 ft | 199 kts | 317° |
| 2026-05-07 21:04 | 43.42119 | -3.06474 | 4513 ft | 197 kts | 317° |
| 2026-05-07 21:04 | 43.42800 | -3.07285 | 4419 ft | 195 kts | 317° |
| 2026-05-07 21:04 | 43.43961 | -3.09142 | 4498 ft | 193 kts | 286° |
| 2026-05-07 21:04 | 43.43806 | -3.10849 | 4358 ft | 186 kts | 233° |
| 2026-05-07 21:05 | 43.42751 | -3.11735 | 4186 ft | 176 kts | 197° |
| 2026-05-07 21:05 | 43.41579 | -3.12107 | 3958 ft | 170 kts | 190° |
| 2026-05-07 21:05 | 43.40420 | -3.12367 | 3705 ft | 167 kts | 187° |
| 2026-05-07 21:05 | 43.39291 | -3.12284 | 3528 ft | 161 kts | 167° |
| 2026-05-07 21:06 | 43.38328 | -3.11586 | 3352 ft | 157 kts | 139° |
| 2026-05-07 21:06 | 43.37821 | -3.10890 | 3222 ft | 154 kts | 137° |
| 2026-05-07 21:06 | 43.37116 | -3.09808 | 3008 ft | 150 kts | 128° |
| 2026-05-07 21:06 | 43.36570 | -3.08652 | 2864 ft | 140 kts | 125° |
| 2026-05-07 21:07 | 43.36126 | -3.07475 | 2661 ft | 137 kts | 120° |
| 2026-05-07 21:07 | 43.35721 | -3.06298 | 2424 ft | 135 kts | 117° |
| 2026-05-07 21:07 | 43.35292 | -3.05149 | 2187 ft | 135 kts | 120° |
| 2026-05-07 21:07 | 43.34855 | -3.04009 | 1982 ft | 135 kts | 119° |
| 2026-05-07 21:08 | 43.34422 | -3.02870 | 1772 ft | 135 kts | 118° |
| 2026-05-07 21:08 | 43.33998 | -3.01721 | 1563 ft | 134 kts | 118° |
| 2026-05-07 21:08 | 43.33573 | -3.00585 | 1361 ft | 134 kts | 118° |
| 2026-05-07 21:08 | 43.33141 | -2.99456 | 1131 ft | 134 kts | 117° |
| 2026-05-07 21:09 | 43.32731 | -2.98307 | 982 ft | 134 kts | 115° |
| 2026-05-07 21:09 | 43.32334 | -2.97145 | 839 ft | 134 kts | 117° |
| 2026-05-07 21:09 | 43.31901 | -2.96016 | 702 ft | 134 kts | 117° |
| 2026-05-07 21:09 | 43.31495 | -2.94869 | 578 ft | 133 kts | 115° |
| 2026-05-07 21:10 | 43.31087 | -2.93731 | 402 ft | 133 kts | 117° |
| 2026-05-07 21:10 | 43.30671 | -2.92605 | 183 ft | 131 kts | 117° |
| 2026-05-07 21:10 | 43.30286 | -2.91550 | 124 ft | 106 kts | 116° |
| 2026-05-07 21:10 | 43.30034 | -2.90853 | 124 ft | 57 kts | 116° |
| 2026-05-07 21:11 | 43.29938 | -2.90558 | 126 ft | 26 kts | 104° |
| 2026-05-07 21:11 | 43.29925 | -2.90331 | 128 ft | 15 kts | 85° |
| 2026-05-07 21:11 | 43.29990 | -2.90234 | 125 ft | 14 kts | 316° |
| 2026-05-07 21:12 | 43.30022 | -2.90316 | 126 ft | 12 kts | 297° |
| 2026-05-07 21:12 | 43.30058 | -2.90415 | 125 ft | 9 kts | 296° |
| 2026-05-07 21:12 | 43.30097 | -2.90523 | 126 ft | 15 kts | 296° |
| 2026-05-07 21:12 | 43.30163 | -2.90572 | 127 ft | 8 kts | 24° |
| 2026-05-07 21:13 | 43.30218 | -2.90532 | 127 ft | 8 kts | 26° |
| 2026-05-07 21:13 | 43.30282 | -2.90558 | 126 ft | 8 kts | 326° |
| 2026-05-07 21:13 | 43.30335 | -2.90608 | 126 ft | 10 kts | 326° |
| 2026-05-07 21:13 | 43.30365 | -2.90607 | 127 ft | 6 kts | 32° |
| 2026-05-07 21:14 | 43.30393 | -2.90586 | 124 ft | 4 kts | 27° |
| 2026-05-07 21:14 | 43.30405 | -2.90578 | 125 ft | 1 kts | 26° |